This is the latest recevied weather packets stored in our database for station/object KY4OP-13. If no packets are shown the sender has not sent any weather packets the latest 1 day(s).
| Time | Temp. | Humidity | Pressure | Rain* | Wind** | Luminosity | Snow |
|---|---|---|---|---|---|---|---|
| 1778021357 | 25.56° C | 32% | 1012.3 hPa | 0 mm | 1.79 m/s, 206° | - | - |
| 1778021055 | 26.11° C | 30% | 1012.1 hPa | 0 mm | 5.36 m/s, 209° | - | - |
| 1778020752 | 26.67° C | 30% | 1012.3 hPa | 0 mm | 2.68 m/s, 221° | - | - |
| 1778020449 | 26.11° C | 30% | 1012.3 hPa | 0 mm | 2.24 m/s, 234° | - | - |
| 1778020145 | 26.67° C | 30% | 1012.3 hPa | 0 mm | 5.81 m/s, 226° | - | - |
| 1778019841 | 26.67° C | 31% | 1012.3 hPa | 0 mm | 2.24 m/s, 242° | - | - |
| 1778019538 | 25.56° C | 30% | 1012.3 hPa | 0 mm | 4.02 m/s, 223° | - | - |
| 1778019235 | 25.56° C | 31% | 1012.4 hPa | 0 mm | 0.89 m/s, 225° | - | - |
| 1778018932 | 26.11° C | 30% | 1012.3 hPa | 0 mm | 3.13 m/s, 234° | - | - |
| 1778018629 | 26.67° C | 29% | 1012.5 hPa | 0 mm | 2.68 m/s, 220° | - | - |
| 1778018327 | 27.22° C | 27% | 1012.3 hPa | 0 mm | 5.36 m/s, 222° | - | - |
| 1778018025 | 27.22° C | 27% | 1012.2 hPa | 0 mm | 5.36 m/s, 222° | - | - |
| 1778017723 | 27.22° C | 27% | 1012.1 hPa | 0 mm | 4.02 m/s, 235° | - | - |
| 1778017420 | 27.78° C | 26% | 1012.1 hPa | 0 mm | 4.92 m/s, 250° | - | - |
| 1778017117 | 27.78° C | 27% | 1012.1 hPa | 0 mm | 4.02 m/s, 246° | - | - |
| 1778016815 | 27.78° C | 27% | 1012 hPa | 0 mm | 3.13 m/s, 234° | - | - |
| 1778016510 | 27.78° C | 28% | 1011.7 hPa | 0 mm | 5.81 m/s, 240° | - | - |
| 1778016208 | 27.22° C | 30% | 1012 hPa | 0 mm | 4.02 m/s, 217° | - | - |
| 1778015903 | 27.78° C | 31% | 1011.7 hPa | 0 mm | 5.36 m/s, 287° | - | - |
| 1778015602 | 26.67° C | 31% | 1011.8 hPa | 0 mm | 3.13 m/s, 227° | - | - |
| 1778015298 | 26.67° C | 32% | 1011.8 hPa | 0 mm | 4.02 m/s, 271° | - | - |
| 1778014995 | 26.11° C | 32% | 1012 hPa | 0 mm | 4.02 m/s, 225° | - | - |
| 1778014692 | 26.67° C | 33% | 1012.2 hPa | 0 mm | 4.47 m/s, 251° | - | - |
| 1778014390 | 26.67° C | 33% | 1012.1 hPa | 0 mm | 3.13 m/s, 205° | - | - |
| 1778014086 | 26.67° C | 32% | 1012 hPa | 0 mm | 2.24 m/s, 208° | - | - |
* Rain latest hour (hover to see other rain measurements)
** Current wind speed in m/s (hover to see current wind gust speed)